Time;durP1;ratioP1;P1;durP2;ratioP2;P2;SDS_P1;SDS_P2;PMS_P1;PMS_P2;Temp;Humidity;BMP_temperature;BMP_pressure;BME280_temperature;BME280_humidity;BME280_pressure;Samples;Min_cycle;Max_cycle;Signal;HPM_P1;HPM_P2
2024/01/09 09:00:47;;;;;;;;;;;;;;;5.29;93.01;100629.31;5044084;28;19932;-87
2024/01/09 09:03:15;;;;;;;;;;;;;;;5.21;93.21;100631.97;5042966;28;20283;-87
2024/01/09 09:05:40;;;;;;;;;;;;;;;5.19;93.85;100623.25;5045112;28;20004;-86
2024/01/09 09:08:05;;;;;;;;;;;;;;;5.13;94.90;100633.78;5044640;28;20073;-85
2024/01/09 09:10:30;;;;;;;;;;;;;;;5.08;95.24;100638.22;5044410;28;19921;-85
2024/01/09 09:12:56;;;;;;;;;;;;;;;5.17;93.25;100640.78;5043852;28;20010;-83
2024/01/09 09:15:21;;;;;;;;;;;;;;;4.93;95.30;100630.44;5044983;28;19920;-81
2024/01/09 09:17:46;;;;;;;;;;;;;;;4.90;99.68;100631.34;5043067;28;19979;-81
2024/01/09 09:20:11;;;;;;;;;;;;;;;4.92;100.00;100632.19;5044955;28;19925;-89
2024/01/09 09:22:38;;;;;;;;;;;;;;;4.94;100.00;100634.81;5044614;28;20384;-85
2024/01/09 09:25:03;;;;;;;;;;;;;;;4.95;100.00;100637.44;5044733;28;19925;-82
2024/01/09 09:27:28;;;;;;;;;;;;;;;4.96;100.00;100646.16;5025610;28;20386;-81
2024/01/09 09:29:53;;;;;;;;;;;;;;;4.90;100.00;100637.44;5043392;28;19929;-82
2024/01/09 09:32:19;;;;;;;;;;;;;;;5.25;100.00;100646.84;5044737;28;19964;-77
2024/01/09 09:34:44;;;;;;;;;;;;;;;5.17;100.00;100639.91;5044797;28;19920;-79
2024/01/09 09:37:11;;;;;;;;;;;;;;;5.00;100.00;100646.16;5044846;28;20290;-85
2024/01/09 09:39:36;;;;;;;;;;;;;;;4.99;100.00;100646.16;5045367;28;19924;-83
2024/01/09 09:42:01;;;;;;;;;;;;;;;4.93;100.00;100644.44;5026164;28;19920;-85
2024/01/09 09:44:27;;;;;;;;;;;;;;;4.88;100.00;100654.09;5044841;28;19921;-85
2024/01/09 09:46:53;;;;;;;;;;;;;;;4.84;100.00;100648.00;5042714;28;20016;-84
2024/01/09 09:49:22;;;;;;;;;;;;;;;4.82;100.00;100655.00;5045517;28;20408;-84
2024/01/09 09:51:49;;;;;;;;;;;;;;;4.80;100.00;100658.50;5043900;28;20084;-85
2024/01/09 09:54:15;;;;;;;;;;;;;;;4.73;100.00;100650.66;5042261;28;19944;-86
2024/01/09 09:56:41;;;;;;;;;;;;;;;4.74;100.00;100651.56;5042785;28;20015;-85
2024/01/09 09:59:08;;;;;;;;;;;;;;;4.70;100.00;100655.06;5044722;28;19921;-85
2024/01/09 10:01:34;;;;;;;;;;;;;;;4.66;100.00;100638.47;5042784;28;19929;-85
2024/01/09 10:04:05;;;;;;;;;;;;;;;4.69;100.00;100643.69;5043364;28;19932;-84
2024/01/09 10:06:31;;;;;;;;;;;;;;;4.63;100.00;100646.34;5041441;28;19917;-86
2024/01/09 10:09:03;;;;;;;;;;;;;;;4.62;100.00;100638.47;5044320;28;19931;-90
2024/01/09 10:11:31;;;;;;;;;;;;;;;4.60;100.00;100642.88;5043257;28;19921;-84
2024/01/09 10:13:57;;;;;;;;;;;;;;;4.58;100.00;100639.38;5042919;28;19921;-83
2024/01/09 10:16:22;;;;;;;;;;;;;;;4.53;100.00;100642.00;5043298;28;19932;-85
2024/01/09 10:18:47;;;;;;;;;;;;;;;4.54;100.00;100634.13;5042446;28;20280;-84
2024/01/09 10:21:16;;;;;;;;;;;;;;;4.50;100.00;100632.41;5044233;28;19929;-85
2024/01/09 10:23:42;;;;;;;;;;;;;;;4.51;100.00;100647.25;5042392;28;19928;-84
2024/01/09 10:26:11;;;;;;;;;;;;;;;4.47;100.00;100629.81;5043038;28;20372;-84
2024/01/09 10:28:36;;;;;;;;;;;;;;;4.45;100.00;100631.56;5043842;28;19921;-84
2024/01/09 10:31:05;;;;;;;;;;;;;;;4.45;100.00;100625.44;5043146;28;20016;-84
2024/01/09 10:33:30;;;;;;;;;;;;;;;4.43;100.00;100620.19;5042658;28;19927;-84
2024/01/09 10:35:55;;;;;;;;;;;;;;;4.43;100.00;100620.19;5042527;28;20445;-85
2024/01/09 10:38:25;;;;;;;;;;;;;;;4.41;100.00;100615.84;5043774;28;19921;-85
2024/01/09 10:40:55;;;;;;;;;;;;;;;4.42;100.00;100604.44;5024170;28;20016;-84
2024/01/09 10:43:22;;;;;;;;;;;;;;;4.40;100.00;100604.44;5042726;28;19954;-84
2024/01/09 10:45:48;;;;;;;;;;;;;;;4.41;100.00;100606.22;5043352;28;19928;-84
2024/01/09 10:48:13;;;;;;;;;;;;;;;4.36;100.00;100600.09;5042119;28;19929;-84
2024/01/09 10:50:38;;;;;;;;;;;;;;;4.35;100.00;100596.59;5042157;28;20330;-84
2024/01/09 10:53:05;;;;;;;;;;;;;;;4.35;100.00;100601.84;5041361;28;19921;-84
2024/01/09 10:55:32;;;;;;;;;;;;;;;4.37;100.00;100607.09;5042524;28;19960;-84
2024/01/09 10:57:58;;;;;;;;;;;;;;;4.38;100.00;100595.72;5041793;28;20386;-84
2024/01/09 11:00:24;;;;;;;;;;;;;;;4.33;100.00;100597.50;5042640;28;19924;-84
2024/01/09 11:02:49;;;;;;;;;;;;;;;4.31;100.00;100588.78;5033020;28;20327;-84
2024/01/09 11:05:15;;;;;;;;;;;;;;;4.32;100.00;100583.50;5042928;28;19925;-84
2024/01/09 11:07:44;;;;;;;;;;;;;;;4.61;100.00;100584.22;5041916;28;19921;-84
2024/01/09 11:10:14;;;;;;;;;;;;;;;5.08;100.00;100569.91;5041190;28;19970;-84
2024/01/09 11:12:41;;;;;;;;;;;;;;;5.35;100.00;100579.31;5039216;28;19921;-84
2024/01/09 11:15:19;;;;;;;;;;;;;;;5.55;100.00;100578.25;5041570;28;19928;-84
2024/01/09 11:17:46;;;;;;;;;;;;;;;5.70;100.00;100570.22;5043630;28;19925;-84
2024/01/09 11:20:14;;;;;;;;;;;;;;;5.82;100.00;100566.59;5040466;28;20372;-84
2024/01/09 11:22:39;;;;;;;;;;;;;;;5.92;100.00;100562.97;5042195;28;19920;-84
2024/01/09 11:25:09;;;;;;;;;;;;;;;6.00;100.00;100553.28;5024897;28;19932;-81
2024/01/09 11:27:39;;;;;;;;;;;;;;;5.98;100.00;100549.78;5042287;28;19921;-83
2024/01/09 11:30:05;;;;;;;;;;;;;;;6.10;100.00;100551.41;5041919;28;20055;-81
2024/01/09 11:32:33;;;;;;;;;;;;;;;6.22;100.00;100549.50;5042245;28;19996;-83
2024/01/09 11:35:11;;;;;;;;;;;;;;;6.31;100.00;100555.50;5024475;28;20391;-82
2024/01/09 11:37:39;;;;;;;;;;;;;;;6.36;100.00;100542.28;5041367;28;19967;-84
2024/01/09 11:40:09;;;;;;;;;;;;;;;6.43;100.00;100549.22;5042212;28;19959;-81
2024/01/09 11:42:37;;;;;;;;;;;;;;;6.47;100.00;100550.03;5022207;28;19917;-81
2024/01/09 11:45:03;;;;;;;;;;;;;;;6.50;100.00;100542.09;5039140;28;19940;-84
2024/01/09 11:47:29;;;;;;;;;;;;;;;6.54;100.00;100549.06;5040874;28;19944;-82
2024/01/09 11:49:56;;;;;;;;;;;;;;;6.58;100.00;100548.13;5025345;28;20383;-81
2024/01/09 11:52:22;;;;;;;;;;;;;;;6.58;100.00;100548.13;5039979;28;19986;-82
2024/01/09 11:54:47;;;;;;;;;;;;;;;6.63;100.00;100540.16;5041689;28;20010;-82
2024/01/09 11:57:12;;;;;;;;;;;;;;;6.67;100.00;100550.63;5040785;28;19921;-82
2024/01/09 11:59:39;;;;;;;;;;;;;;;6.69;100.00;100540.94;5031479;28;19967;-82
2024/01/09 12:02:05;;;;;;;;;;;;;;;6.73;100.00;100541.75;5018160;28;19917;-83
2024/01/09 12:04:31;;;;;;;;;;;;;;;6.76;100.00;100539.06;5022125;28;19917;-82
2024/01/09 12:06:56;;;;;;;;;;;;;;;6.81;100.00;100537.28;5020971;28;20008;-81
2024/01/09 12:09:21;;;;;;;;;;;;;;;6.82;100.00;100535.50;5022257;28;20008;-83
2024/01/09 12:11:46;;;;;;;;;;;;;;;6.83;100.00;100542.47;5020753;28;20364;-82
2024/01/09 12:14:12;;;;;;;;;;;;;;;6.87;100.00;100542.41;5012283;28;20054;-82
2024/01/09 12:16:37;;;;;;;;;;;;;;;6.88;100.00;100540.66;5022534;28;20020;-81
2024/01/09 12:19:02;;;;;;;;;;;;;;;6.90;100.00;100536.25;5004483;28;19918;-83
2024/01/09 12:21:32;;;;;;;;;;;;;;;6.92;100.00;100526.53;5004168;28;19921;-82
2024/01/09 12:23:59;;;;;;;;;;;;;;;6.93;100.00;100530.94;5020262;28;19960;-82
2024/01/09 12:26:25;;;;;;;;;;;;;;;6.95;100.00;100529.13;5020234;28;19936;-82
2024/01/09 12:28:51;;;;;;;;;;;;;;;6.95;100.00;100525.63;5004598;28;20016;-81
2024/01/09 12:31:17;;;;;;;;;;;;;;;7.00;100.00;100523.78;5005486;28;20061;-81
2024/01/09 12:33:43;;;;;;;;;;;;;;;6.99;100.00;100528.19;5004494;28;19926;-82
2024/01/09 12:36:08;;;;;;;;;;;;;;;7.01;100.00;100526.41;5003627;28;19924;-82
2024/01/09 12:38:34;;;;;;;;;;;;;;;7.02;100.00;100525.50;5021930;28;20348;-81
2024/01/09 12:41:04;;;;;;;;;;;;;;;7.07;100.00;100514.91;5004662;28;20008;-81
2024/01/09 12:43:30;;;;;;;;;;;;;;;7.07;100.00;100513.13;5003243;28;19917;-83
2024/01/09 12:45:56;;;;;;;;;;;;;;;7.11;100.00;100515.72;5020600;28;19975;-84
2024/01/09 12:48:23;;;;;;;;;;;;;;;7.13;100.00;100519.19;5021963;28;19932;-83
2024/01/09 12:50:58;;;;;;;;;;;;;;;7.15;100.00;100512.09;5021275;28;19964;-83
2024/01/09 12:53:23;;;;;;;;;;;;;;;7.16;99.66;100511.22;5003863;28;19917;-83
2024/01/09 12:56:00;;;;;;;;;;;;;;;7.17;99.14;100508.56;5020954;28;20296;-82
2024/01/09 12:58:25;;;;;;;;;;;;;;;7.19;99.54;100508.53;5014197;28;19943;-85
2024/01/09 13:00:50;;;;;;;;;;;;;;;7.22;100.00;100497.94;5041326;28;19925;-82
2024/01/09 13:03:16;;;;;;;;;;;;;;;7.24;100.00;100512.84;5041314;28;19925;-83
2024/01/09 13:05:41;;;;;;;;;;;;;;;7.27;100.00;100509.25;5023760;28;19925;-82
2024/01/09 13:08:06;;;;;;;;;;;;;;;7.29;100.00;100504.81;5023407;28;19920;-81
2024/01/09 13:10:31;;;;;;;;;;;;;;;7.28;100.00;100498.69;5041887;28;19921;-83
2024/01/09 13:12:57;;;;;;;;;;;;;;;7.30;100.00;100501.31;5039845;28;19928;-87
2024/01/09 13:15:22;;;;;;;;;;;;;;;7.32;99.76;100493.38;5022808;28;19927;-80
2024/01/09 13:17:47;;;;;;;;;;;;;;;7.30;99.00;100500.44;5042424;28;19980;-81
2024/01/09 13:20:12;;;;;;;;;;;;;;;7.28;97.94;100508.38;5045209;28;19925;-81
2024/01/09 13:22:38;;;;;;;;;;;;;;;7.31;97.31;100500.41;5027408;28;20364;-80
2024/01/09 13:25:04;;;;;;;;;;;;;;;7.32;96.62;100504.78;5043912;28;20497;-81
2024/01/09 13:27:29;;;;;;;;;;;;;;;7.31;95.92;100496.88;5043023;28;19928;-80
2024/01/09 13:29:56;;;;;;;;;;;;;;;7.31;95.36;100503.06;5044912;28;20290;-87
2024/01/09 13:32:21;;;;;;;;;;;;;;;7.36;95.65;100492.44;5043692;28;19921;-82
2024/01/09 13:34:46;;;;;;;;;;;;;;;7.33;95.33;100495.97;5026897;28;19931;-81
2024/01/09 13:37:12;;;;;;;;;;;;;;;7.38;96.01;100496.75;5043358;28;19964;-81
2024/01/09 13:39:37;;;;;;;;;;;;;;;7.38;95.61;100499.38;5026493;28;20412;-84
2024/01/09 13:42:03;;;;;;;;;;;;;;;7.40;95.33;100496.72;5043184;28;19978;-80
2024/01/09 13:44:28;;;;;;;;;;;;;;;7.39;94.58;100500.28;5026010;28;19924;-80
2024/01/09 13:46:55;;;;;;;;;;;;;;;7.43;94.65;100499.31;5026459;28;20372;-79
2024/01/09 13:49:20;;;;;;;;;;;;;;;7.45;94.76;100495.75;5044098;28;20360;-83
2024/01/09 13:51:45;;;;;;;;;;;;;;;7.17;92.94;100486.63;5044529;28;19937;-81
2024/01/09 13:54:11;;;;;;;;;;;;;;;6.28;94.19;100502.91;5042137;28;19999;-81
2024/01/09 13:56:36;;;;;;;;;;;;;;;5.88;96.04;100503.41;5008413;28;19940;-84
2024/01/09 13:59:03;;;;;;;;;;;;;;;5.74;97.16;100503.53;5037582;28;19921;-81
2024/01/09 14:01:28;;;;;;;;;;;;;;;5.64;98.14;100505.41;5015215;28;19921;-80
2024/01/09 14:03:53;;;;;;;;;;;;;;;5.54;99.26;100508.19;5024066;28;19924;-81
2024/01/09 14:06:19;;;;;;;;;;;;;;;5.43;99.72;100511.78;5018548;28;19922;-80
2024/01/09 14:08:44;;;;;;;;;;;;;;;5.40;100.00;100510.94;5023036;28;20059;-80
2024/01/09 14:11:09;;;;;;;;;;;;;;;5.37;100.00;100508.34;5005893;28;19947;-80
2024/01/09 14:13:35;;;;;;;;;;;;;;;5.33;100.00;100509.25;5023544;28;19928;-82
2024/01/09 14:16:00;;;;;;;;;;;;;;;5.25;100.00;100501.47;5023897;28;19917;-82
2024/01/09 14:18:25;;;;;;;;;;;;;;;5.26;100.00;100504.09;5006810;28;20372;-84
2024/01/09 14:20:50;;;;;;;;;;;;;;;5.23;100.00;100511.09;5007105;28;20439;-81
2024/01/09 14:23:16;;;;;;;;;;;;;;;5.15;100.00;100503.28;5024160;28;19921;-81
2024/01/09 14:25:41;;;;;;;;;;;;;;;5.15;100.00;100508.53;5022746;28;19936;-83
2024/01/09 14:28:06;;;;;;;;;;;;;;;5.11;100.00;100509.47;5020515;28;20021;-84
2024/01/09 14:30:33;;;;;;;;;;;;;;;5.08;100.00;100509.50;5023698;28;19924;-83
2024/01/09 14:32:58;;;;;;;;;;;;;;;5.09;100.00;100503.38;5023340;28;20028;-83
2024/01/09 14:35:24;;;;;;;;;;;;;;;5.05;100.00;100502.50;5023162;28;20407;-83
2024/01/09 14:37:50;;;;;;;;;;;;;;;5.03;100.00;100496.41;5023219;28;19921;-86
2024/01/09 14:40:16;;;;;;;;;;;;;;;4.98;100.00;100499.94;5006727;28;19917;-83
2024/01/09 14:42:41;;;;;;;;;;;;;;;4.98;100.00;100492.06;5021623;28;19928;-83
2024/01/09 14:45:25;;;;;;;;;;;;;;;4.93;100.00;100494.75;5023249;28;19925;-83
2024/01/09 14:47:50;;;;;;;;;;;;;;;4.89;100.00;100499.13;5021984;28;19925;-82
2024/01/09 14:50:15;;;;;;;;;;;;;;;4.89;100.00;100490.41;5022959;28;19921;-84
2024/01/09 14:52:41;;;;;;;;;;;;;;;4.89;100.00;100498.28;5022758;28;20364;-85
2024/01/09 14:55:07;;;;;;;;;;;;;;;4.88;100.00;100491.25;5022091;28;20410;-80
2024/01/09 14:57:32;;;;;;;;;;;;;;;4.87;100.00;100493.03;5022215;28;19986;-81
2024/01/09 14:59:57;;;;;;;;;;;;;;;4.82;100.00;100492.19;5022049;28;19928;-83
2024/01/09 15:02:23;;;;;;;;;;;;;;;4.82;100.00;100492.19;5023175;28;19928;-80
2024/01/09 15:04:49;;;;;;;;;;;;;;;4.78;100.00;100489.59;5022064;28;20078;-82
2024/01/09 15:07:14;;;;;;;;;;;;;;;4.80;100.00;100493.09;5022509;28;19929;-82
2024/01/09 15:09:39;;;;;;;;;;;;;;;4.77;100.00;100494.00;5004857;28;19968;-83
2024/01/09 15:12:05;;;;;;;;;;;;;;;4.80;100.00;100493.09;5010185;28;19921;-82
2024/01/09 15:14:30;;;;;;;;;;;;;;;4.81;100.00;100500.94;5022167;28;19921;-82
2024/01/09 15:16:57;;;;;;;;;;;;;;;4.77;100.00;100494.00;5022144;28;20012;-83
2024/01/09 15:19:22;;;;;;;;;;;;;;;4.77;100.00;100499.25;5022188;28;19932;-81
2024/01/09 15:21:47;;;;;;;;;;;;;;;4.71;100.00;100504.53;5022668;28;19918;-82
2024/01/09 15:24:13;;;;;;;;;;;;;;;4.70;100.00;100500.16;5021382;28;19925;-81
2024/01/09 15:26:39;;;;;;;;;;;;;;;4.71;100.00;100505.41;5022072;28;19921;-82
2024/01/09 15:29:04;;;;;;;;;;;;;;;4.71;100.00;100509.78;5005650;28;19964;-82
2024/01/09 15:31:31;;;;;;;;;;;;;;;4.66;100.00;100506.31;5022746;28;19976;-84
2024/01/09 15:33:59;;;;;;;;;;;;;;;4.71;100.00;100509.78;5022683;28;19975;-82
2024/01/09 15:36:24;;;;;;;;;;;;;;;4.68;100.00;100518.56;5005672;28;19925;-81
2024/01/09 15:38:49;;;;;;;;;;;;;;;4.64;100.00;100521.22;5021477;28;20398;-86
2024/01/09 15:41:15;;;;;;;;;;;;;;;4.63;100.00;100516.84;5003354;28;20423;-84
2024/01/09 15:43:41;;;;;;;;;;;;;;;4.64;100.00;100523.84;5005203;28;19929;-82
2024/01/09 15:46:09;;;;;;;;;;;;;;;4.65;100.00;100528.22;5005570;28;19998;-81
2024/01/09 15:48:38;;;;;;;;;;;;;;;4.65;100.00;100529.06;5021129;28;20849;-83
2024/01/09 15:51:06;;;;;;;;;;;;;;;4.62;100.00;100531.72;5002849;28;19921;-81
2024/01/09 15:53:32;;;;;;;;;;;;;;;4.61;100.00;100529.09;5020797;28;19918;-81
2024/01/09 15:55:57;;;;;;;;;;;;;;;4.65;100.00;100528.22;5021466;28;19925;-81
2024/01/09 15:58:22;;;;;;;;;;;;;;;4.63;100.00;100537.84;5003806;28;19929;-80
2024/01/09 16:00:47;;;;;;;;;;;;;;;4.60;100.00;100538.75;5021920;28;19967;-81
2024/01/09 16:03:13;;;;;;;;;;;;;;;4.61;100.00;100534.34;5021816;28;19926;-81
2024/01/09 16:05:38;;;;;;;;;;;;;;;4.58;100.00;100539.63;5020865;28;19921;-83
2024/01/09 16:08:04;;;;;;;;;;;;;;;4.57;100.00;100540.53;5022560;28;19917;-81
2024/01/09 16:10:29;;;;;;;;;;;;;;;4.54;100.00;100542.25;5022020;28;19917;-80
2024/01/09 16:12:55;;;;;;;;;;;;;;;4.56;100.00;100547.50;5020369;28;20032;-80
2024/01/09 16:15:21;;;;;;;;;;;;;;;4.55;100.00;100549.25;5021137;28;19921;-80
2024/01/09 16:17:46;;;;;;;;;;;;;;;4.50;100.00;100543.19;5022730;28;19975;-84
2024/01/09 16:20:12;;;;;;;;;;;;;;;4.52;100.00;100556.28;5020861;28;20028;-83
2024/01/09 16:22:38;;;;;;;;;;;;;;;4.52;100.00;100554.53;5022266;28;20016;-83
2024/01/09 16:25:08;;;;;;;;;;;;;;;4.51;100.00;100559.78;5022244;28;20004;-81
2024/01/09 16:27:33;;;;;;;;;;;;;;;4.55;100.00;100559.75;5021313;28;20383;-82
2024/01/09 16:29:59;;;;;;;;;;;;;;;4.56;100.00;100558.00;5021947;28;20007;-81
2024/01/09 16:32:24;;;;;;;;;;;;;;;4.54;100.00;100555.38;5021736;28;20300;-79
2024/01/09 16:34:49;;;;;;;;;;;;;;;4.49;100.00;100559.78;5004212;28;19928;-79
2024/01/09 16:37:14;;;;;;;;;;;;;;;4.51;100.00;100559.78;5022204;28;19921;-81
2024/01/09 16:39:39;;;;;;;;;;;;;;;4.51;100.00;100565.91;5021224;28;20521;-86
2024/01/09 16:42:25;;;;;;;;;;;;;;;4.49;100.00;100562.41;5020932;28;20368;-88
2024/01/09 16:44:50;;;;;;;;;;;;;;;4.51;100.00;100562.41;5022347;28;19929;-83
2024/01/09 16:47:16;;;;;;;;;;;;;;;4.47;100.00;100558.94;5021482;28;19925;-82
2024/01/09 16:49:42;;;;;;;;;;;;;;;4.44;100.00;100555.47;5020903;28;20312;-80
2024/01/09 16:52:07;;;;;;;;;;;;;;;4.48;100.00;100565.94;5021438;28;19933;-81
2024/01/09 16:54:32;;;;;;;;;;;;;;;4.47;100.00;100564.19;5025604;28;19960;-80
2024/01/09 16:56:57;;;;;;;;;;;;;;;4.48;100.00;100558.06;5006168;28;20345;-80
2024/01/09 16:59:23;;;;;;;;;;;;;;;4.46;100.00;100554.56;5034630;28;20292;-85
2024/01/09 17:01:51;;;;;;;;;;;;;;;4.45;100.00;100562.44;5028285;28;19924;-80
2024/01/09 17:04:17;;;;;;;;;;;;;;;4.47;100.00;100558.94;5035526;28;19978;-81
2024/01/09 17:06:46;;;;;;;;;;;;;;;4.43;100.00;100557.19;5034799;28;19928;-90
2024/01/09 17:09:12;;;;;;;;;;;;;;;4.46;100.00;100557.19;5044921;28;19917;-79
2024/01/09 17:11:38;;;;;;;;;;;;;;;4.43;100.00;100554.56;5043885;28;19990;-79
2024/01/09 17:14:03;;;;;;;;;;;;;;;4.45;100.00;100555.47;5044891;28;19953;-80
2024/01/09 17:16:29;;;;;;;;;;;;;;;4.45;100.00;100550.22;5026762;28;19963;-81
2024/01/09 17:18:54;;;;;;;;;;;;;;;4.45;100.00;100559.81;5026995;28;19913;-81
2024/01/09 17:21:19;;;;;;;;;;;;;;;4.47;100.00;100558.94;5045202;28;19964;-80
2024/01/09 17:23:45;;;;;;;;;;;;;;;4.46;100.00;100558.94;5044899;28;20376;-82
2024/01/09 17:26:10;;;;;;;;;;;;;;;4.47;100.00;100548.44;5043866;28;19913;-80
2024/01/09 17:28:36;;;;;;;;;;;;;;;4.45;100.00;100549.31;5041787;28;19982;-78
2024/01/09 17:31:02;;;;;;;;;;;;;;;4.46;100.00;100553.69;5044974;28;19921;-79
2024/01/09 17:33:27;;;;;;;;;;;;;;;4.39;100.00;100550.25;5044569;28;19967;-79
2024/01/09 17:35:53;;;;;;;;;;;;;;;4.41;100.00;100556.34;5044579;28;19961;-79
2024/01/09 17:38:18;;;;;;;;;;;;;;;4.41;100.00;100548.47;5044578;28;19913;-80
2024/01/09 17:40:43;;;;;;;;;;;;;;;4.46;100.00;100551.94;5044518;28;19970;-80
2024/01/09 17:43:09;;;;;;;;;;;;;;;4.43;100.00;100551.94;5026136;28;20006;-86
2024/01/09 17:45:35;;;;;;;;;;;;;;;4.37;100.00;100551.97;5026506;28;20384;-82
2024/01/09 17:48:00;;;;;;;;;;;;;;;4.42;100.00;100552.84;5027045;28;19917;-81
2024/01/09 17:50:26;;;;;;;;;;;;;;;4.39;100.00;100560.75;5044104;28;19921;-84
2024/01/09 17:52:52;;;;;;;;;;;;;;;4.41;100.00;100548.47;5044571;28;19920;-79
2024/01/09 17:55:17;;;;;;;;;;;;;;;4.38;100.00;100545.88;5042406;28;19951;-81
2024/01/09 17:57:42;;;;;;;;;;;;;;;4.37;100.00;100549.34;5042599;28;20767;-82
2024/01/09 18:00:09;;;;;;;;;;;;;;;4.36;100.00;100545.00;5028614;28;19921;-84
2024/01/09 18:02:34;;;;;;;;;;;;;;;4.39;100.00;100545.00;5022578;28;19949;-79
2024/01/09 18:05:00;;;;;;;;;;;;;;;4.39;100.00;100549.34;5024251;28;19988;-82
2024/01/09 18:07:25;;;;;;;;;;;;;;;4.37;100.00;100546.72;5024385;28;20407;-81
2024/01/09 18:09:50;;;;;;;;;;;;;;;4.38;100.00;100545.00;5007270;28;19920;-80
2024/01/09 18:12:15;;;;;;;;;;;;;;;4.32;100.00;100553.75;5022584;28;19922;-81
2024/01/09 18:14:41;;;;;;;;;;;;;;;4.34;100.00;100546.75;5024261;28;19917;-80
2024/01/09 18:17:06;;;;;;;;;;;;;;;4.35;100.00;100548.50;5024021;28;19983;-82
2024/01/09 18:19:32;;;;;;;;;;;;;;;4.35;100.00;100546.75;5023925;28;20257;-81
2024/01/09 18:21:58;;;;;;;;;;;;;;;4.33;100.00;100556.38;5006213;28;19928;-81
2024/01/09 18:24:23;;;;;;;;;;;;;;;4.47;100.00;100558.94;5023663;28;20004;-82
2024/01/09 18:26:48;;;;;;;;;;;;;;;4.99;100.00;100554.22;5022420;28;20032;-82
2024/01/09 18:29:14;;;;;;;;;;;;;;;5.34;100.00;100558.31;5005528;28;19921;-83
2024/01/09 18:31:42;;;;;;;;;;;;;;;5.54;100.00;100551.09;5023531;28;19921;-81
2024/01/09 18:34:08;;;;;;;;;;;;;;;5.69;100.00;100551.84;5023486;28;19961;-79
2024/01/09 18:36:37;;;;;;;;;;;;;;;5.79;100.00;100554.34;5006835;28;19953;-81
2024/01/09 18:39:04;;;;;;;;;;;;;;;5.91;100.00;100555.09;5023625;28;20012;-87
2024/01/09 18:41:29;;;;;;;;;;;;;;;5.99;100.00;100559.41;5022225;28;19917;-81
2024/01/09 18:43:55;;;;;;;;;;;;;;;6.07;100.00;100555.81;5023213;28;19921;-80
2024/01/09 18:46:20;;;;;;;;;;;;;;;6.15;100.00;100559.22;5023322;28;19967;-82
2024/01/09 18:48:46;;;;;;;;;;;;;;;6.21;100.00;100558.28;5004961;28;19925;-80
2024/01/09 18:51:13;;;;;;;;;;;;;;;6.28;100.00;100560.81;5005568;28;20368;-82
2024/01/09 18:53:39;;;;;;;;;;;;;;;6.34;100.00;100562.50;5013820;28;20393;-85
2024/01/09 18:56:04;;;;;;;;;;;;;;;6.39;100.00;100560.69;5023103;28;20004;-88
2024/01/09 18:58:30;;;;;;;;;;;;;;;6.42;100.00;100557.16;5021868;28;19928;-88
2024/01/09 19:00:56;;;;;;;;;;;;;;;6.46;100.00;100558.81;5023494;28;20015;-88
2024/01/09 19:03:21;;;;;;;;;;;;;;;6.51;100.00;100552.63;5023457;28;19925;-80
2024/01/09 19:05:46;;;;;;;;;;;;;;;6.55;100.00;100559.56;5023468;28;19921;-82
2024/01/09 19:08:11;;;;;;;;;;;;;;;6.60;100.00;100550.75;5013393;28;19921;-83
2024/01/09 19:10:37;;;;;;;;;;;;;;;6.62;100.00;100556.84;5014237;28;19921;-83
2024/01/09 19:13:03;;;;;;;;;;;;;;;6.68;100.00;100554.13;5021585;28;19921;-80
2024/01/09 19:15:28;;;;;;;;;;;;;;;6.69;100.00;100548.84;5022866;28;19917;-80
2024/01/09 19:17:53;;;;;;;;;;;;;;;6.75;100.00;100558.44;5021952;28;20004;-80
2024/01/09 19:20:18;;;;;;;;;;;;;;;6.77;100.00;100547.88;5023289;28;20012;-81
2024/01/09 19:22:44;;;;;;;;;;;;;;;6.78;100.00;100546.97;5022661;28;20059;-81
2024/01/09 19:25:11;;;;;;;;;;;;;;;6.82;100.00;100546.88;5022349;28;20414;-81
2024/01/09 19:27:39;;;;;;;;;;;;;;;6.85;100.00;100557.38;5021549;28;20019;-82
2024/01/09 19:30:05;;;;;;;;;;;;;;;6.90;100.00;100546.78;5022519;28;19921;-80
2024/01/09 19:32:31;;;;;;;;;;;;;;;6.92;100.00;100544.97;5004963;28;20284;-80
2024/01/09 19:34:57;;;;;;;;;;;;;;;6.94;100.00;100539.69;5005816;28;20019;-79
2024/01/09 19:37:22;;;;;;;;;;;;;;;6.94;100.00;100543.22;5022815;28;20020;-79
2024/01/09 19:39:47;;;;;;;;;;;;;;;6.95;100.00;100542.28;5021826;28;19921;-83
2024/01/09 19:42:12;;;;;;;;;;;;;;;6.97;100.00;100545.78;5021453;28;19918;-80
2024/01/09 19:44:38;;;;;;;;;;;;;;;7.02;100.00;100553.59;5022278;28;19937;-80
2024/01/09 19:47:04;;;;;;;;;;;;;;;7.02;100.00;100546.59;5022122;28;19991;-80
2024/01/09 19:49:30;;;;;;;;;;;;;;;7.04;100.00;100547.44;5021933;28;19921;-83
2024/01/09 19:51:55;;;;;;;;;;;;;;;7.06;100.00;100553.53;5022978;28;20292;-84
2024/01/09 19:54:20;;;;;;;;;;;;;;;7.10;100.00;100546.47;5022020;28;19965;-80
2024/01/09 19:56:46;;;;;;;;;;;;;;;7.09;100.00;100550.84;5003654;28;19924;-82
2024/01/09 19:59:11;;;;;;;;;;;;;;;7.10;100.00;100543.84;5029545;28;19921;-84
2024/01/09 20:01:36;;;;;;;;;;;;;;;7.13;100.00;100551.66;5024732;28;20315;-81
2024/01/09 20:04:01;;;;;;;;;;;;;;;7.11;99.20;100545.56;5041791;28;20788;-80
2024/01/09 20:06:27;;;;;;;;;;;;;;;7.12;98.68;100547.31;5041853;28;19920;-81
2024/01/09 20:08:52;;;;;;;;;;;;;;;7.15;97.77;100546.38;5042250;28;20008;-81
2024/01/09 20:11:22;;;;;;;;;;;;;;;7.15;97.22;100543.72;5023629;28;20019;-80
2024/01/09 20:13:47;;;;;;;;;;;;;;;7.18;96.87;100543.69;5041865;28;20368;-78
2024/01/09 20:16:15;;;;;;;;;;;;;;;7.17;96.38;100540.19;5042237;28;19970;-79
2024/01/09 20:18:40;;;;;;;;;;;;;;;7.20;96.18;100541.91;5041809;28;19924;-79
2024/01/09 20:21:05;;;;;;;;;;;;;;;7.21;95.83;100549.78;5023914;28;20339;-81
2024/01/09 20:23:31;;;;;;;;;;;;;;;7.23;95.54;100544.50;5041902;28;20379;-81
2024/01/09 20:25:56;;;;;;;;;;;;;;;7.23;95.17;100536.59;5024196;28;19921;-82
2024/01/09 20:28:21;;;;;;;;;;;;;;;7.25;94.56;100538.28;5044221;28;19916;-82
2024/01/09 20:30:48;;;;;;;;;;;;;;;7.26;94.74;100539.19;5045915;28;20023;-81
2024/01/09 20:33:13;;;;;;;;;;;;;;;7.26;94.50;100537.41;5046107;28;19940;-80
2024/01/09 20:35:40;;;;;;;;;;;;;;;7.28;94.31;100545.28;5028150;28;20364;-82
2024/01/09 20:38:05;;;;;;;;;;;;;;;7.29;94.22;100539.09;5045261;28;20422;-81
2024/01/09 20:40:30;;;;;;;;;;;;;;;7.31;94.10;100536.44;5028233;28;19917;-83
2024/01/09 20:42:56;;;;;;;;;;;;;;;7.33;93.78;100538.16;5044668;28;19920;-81
2024/01/09 20:45:22;;;;;;;;;;;;;;;7.33;93.92;100540.78;5028652;28;19924;-83
2024/01/09 20:47:48;;;;;;;;;;;;;;;7.36;93.74;100548.66;5027732;28;19921;-82
2024/01/09 20:50:15;;;;;;;;;;;;;;;7.37;93.88;100544.25;5045454;28;19942;-83
2024/01/09 20:52:40;;;;;;;;;;;;;;;7.36;94.05;100543.38;5045626;28;19972;-81
2024/01/09 20:55:07;;;;;;;;;;;;;;;7.37;94.02;100547.75;5045263;28;19958;-80
2024/01/09 20:57:32;;;;;;;;;;;;;;;7.38;93.53;100552.13;5026707;28;19924;-82
2024/01/09 20:59:57;;;;;;;;;;;;;;;7.38;93.21;100549.47;5014543;28;19925;-83
2024/01/09 21:02:29;;;;;;;;;;;;;;;7.39;92.77;100553.88;5025300;28;19918;-81
2024/01/09 21:04:55;;;;;;;;;;;;;;;7.41;92.67;100551.22;5025105;28;19917;-88
2024/01/09 21:07:20;;;;;;;;;;;;;;;7.40;92.36;100553.00;5007839;28;19921;-80
2024/01/09 21:09:45;;;;;;;;;;;;;;;6.65;90.48;100555.06;5024759;28;19961;-80
2024/01/09 21:12:11;;;;;;;;;;;;;;;6.01;92.24;100556.75;5023850;28;19921;-79
2024/01/09 21:14:36;;;;;;;;;;;;;;;5.85;93.70;100566.56;5016321;28;19921;-78
2024/01/09 21:17:01;;;;;;;;;;;;;;;5.69;94.21;100559.72;5024774;28;19923;-83
2024/01/09 21:19:27;;;;;;;;;;;;;;;5.58;95.19;100563.31;5025652;28;20013;-81
2024/01/09 21:21:53;;;;;;;;;;;;;;;5.49;95.83;100571.31;5024777;28;19917;-80
2024/01/09 21:24:18;;;;;;;;;;;;;;;5.41;96.60;100565.28;5025970;28;19922;-83
2024/01/09 21:26:43;;;;;;;;;;;;;;;5.34;96.93;100558.31;5024008;28;20369;-80
2024/01/09 21:29:08;;;;;;;;;;;;;;;5.27;97.26;100563.63;5024530;28;19921;-84
2024/01/09 21:31:34;;;;;;;;;;;;;;;5.27;97.47;100563.63;5025659;28;20387;-79